createdAt,value
2023-02-19T00:01:23.774Z,12.43
2023-02-19T00:03:55.945Z,12.18
2023-02-19T00:06:24.468Z,12.68
2023-02-19T00:08:50.908Z,12.27
2023-02-19T00:11:23.328Z,12.80
2023-02-19T00:13:52.412Z,13.13
2023-02-19T00:16:22.466Z,13.38
2023-02-19T00:18:49.297Z,12.95
2023-02-19T00:21:16.760Z,13.85
2023-02-19T00:23:43.705Z,14.43
2023-02-19T00:26:18.245Z,14.25
2023-02-19T00:28:49.026Z,14.98
2023-02-19T00:31:27.641Z,14.85
2023-02-19T00:33:57.580Z,14.57
2023-02-19T00:36:25.047Z,13.93
2023-02-19T00:38:51.996Z,15.13
2023-02-19T00:41:20.334Z,15.65
2023-02-19T00:43:58.614Z,16.30
2023-02-19T00:46:29.750Z,15.93
2023-02-19T00:48:56.940Z,15.85
2023-02-19T00:51:25.921Z,16.48
2023-02-19T00:53:52.623Z,16.13
2023-02-19T00:56:19.771Z,16.05
2023-02-19T00:58:48.241Z,15.77
2023-02-19T01:01:15.048Z,14.63
2023-02-19T01:03:42.327Z,16.13
2023-02-19T01:06:11.260Z,16.38
2023-02-19T01:08:37.808Z,17.35
2023-02-19T01:11:06.075Z,17.52
2023-02-19T01:13:33.407Z,16.38
2023-02-19T01:16:05.395Z,16.83
2023-02-19T01:18:32.459Z,16.05
2023-02-19T01:20:58.909Z,16.60
2023-02-19T01:23:25.659Z,16.17
2023-02-19T01:25:52.074Z,16.52
2023-02-19T01:28:18.498Z,17.80
2023-02-19T01:30:45.017Z,16.90
2023-02-19T01:33:11.469Z,16.23
2023-02-19T01:35:39.386Z,17.33
2023-02-19T01:38:08.260Z,15.93
2023-02-19T01:40:35.528Z,16.58
2023-02-19T01:43:03.671Z,15.32
2023-02-19T01:45:35.417Z,16.17
2023-02-19T01:48:07.818Z,16.13
2023-02-19T01:50:43.684Z,14.65
2023-02-19T01:53:14.418Z,16.08
2023-02-19T01:55:41.065Z,15.80
2023-02-19T01:58:09.285Z,16.27
2023-02-19T02:00:37.832Z,15.00
2023-02-19T02:03:05.021Z,14.65
2023-02-19T02:05:41.504Z,14.75
2023-02-19T02:08:26.768Z,13.82
2023-02-19T02:10:53.867Z,13.45
2023-02-19T02:13:20.860Z,13.80
2023-02-19T02:16:04.633Z,12.27
2023-02-19T02:18:43.894Z,12.80
2023-02-19T02:21:32.053Z,11.77
2023-02-19T02:24:04.747Z,11.40
2023-02-19T02:27:09.426Z,10.98
2023-02-19T02:29:39.006Z,11.13
2023-02-19T02:32:12.395Z,10.25
2023-02-19T02:34:56.189Z,10.40
2023-02-19T02:37:25.579Z,10.27
2023-02-19T02:39:53.667Z,10.68
2023-02-19T02:42:27.626Z,11.13
2023-02-19T02:45:35.197Z,9.57
2023-02-19T02:48:34.355Z,10.75
2023-02-19T02:51:19.909Z,10.10
2023-02-19T02:54:24.517Z,10.13
2023-02-19T02:56:52.556Z,9.95
2023-02-19T02:59:23.548Z,9.80
2023-02-19T03:02:10.822Z,9.45
2023-02-19T03:05:33.344Z,9.02
2023-02-19T03:08:14.657Z,8.68
2023-02-19T03:10:58.390Z,7.97
2023-02-19T03:13:51.269Z,8.20
2023-02-19T03:16:45.217Z,8.05
2023-02-19T03:19:21.626Z,7.60
2023-02-19T03:21:55.504Z,7.25
2023-02-19T03:24:48.242Z,7.40
2023-02-19T03:27:16.797Z,7.20
2023-02-19T03:29:50.195Z,7.80
2023-02-19T03:32:31.482Z,7.50
2023-02-19T03:35:23.549Z,7.07
2023-02-19T03:38:04.776Z,6.30
2023-02-19T03:40:41.495Z,6.15
2023-02-19T03:43:19.494Z,4.82
2023-02-19T03:46:14.112Z,4.93
2023-02-19T03:48:51.933Z,4.63
2023-02-19T03:51:32.219Z,4.35
2023-02-19T03:54:13.261Z,3.88
2023-02-19T03:56:53.162Z,4.20
2023-02-19T03:59:43.709Z,3.58
2023-02-19T04:02:14.842Z,3.75
2023-02-19T04:04:50.863Z,3.50
2023-02-19T04:07:17.814Z,3.38
2023-02-19T04:09:48.965Z,3.40
2023-02-19T04:12:20.546Z,3.50
2023-02-19T04:15:02.208Z,3.50
2023-02-19T04:17:36.392Z,3.15
2023-02-19T04:20:07.796Z,3.25
2023-02-19T04:22:36.836Z,3.30
2023-02-19T04:25:03.886Z,3.20
2023-02-19T04:27:30.465Z,3.28
2023-02-19T04:29:57.121Z,3.30
2023-02-19T04:32:23.589Z,3.03
2023-02-19T04:34:52.245Z,3.10
2023-02-19T04:37:19.815Z,3.13
2023-02-19T04:39:46.264Z,3.35
2023-02-19T04:42:12.694Z,3.03
2023-02-19T04:44:39.453Z,3.17
2023-02-19T04:47:05.955Z,3.25
2023-02-19T04:49:32.420Z,3.53
2023-02-19T04:51:58.893Z,2.50
2023-02-19T04:54:25.400Z,3.70
2023-02-19T04:56:51.825Z,3.20
2023-02-19T04:59:18.469Z,3.10
2023-02-19T05:01:44.996Z,3.22
2023-02-19T05:04:11.540Z,3.25
2023-02-19T05:06:38.115Z,3.08
2023-02-19T05:09:04.629Z,2.83
2023-02-19T05:11:31.042Z,2.95
2023-02-19T05:13:57.601Z,3.30
2023-02-19T05:16:24.086Z,3.00
2023-02-19T05:18:51.083Z,3.30
2023-02-19T05:21:19.295Z,2.75
2023-02-19T05:23:45.773Z,2.95
2023-02-19T05:26:18.541Z,3.00
2023-02-19T05:28:52.962Z,3.55
2023-02-19T05:31:20.736Z,3.15
2023-02-19T05:33:50.906Z,3.30
2023-02-19T05:36:19.106Z,3.25
2023-02-19T05:38:45.786Z,2.80
2023-02-19T05:41:17.690Z,2.80
2023-02-19T05:43:46.076Z,3.20
2023-02-19T05:46:15.936Z,2.70
2023-02-19T05:48:43.213Z,3.20
2023-02-19T05:51:12.522Z,2.72
2023-02-19T05:53:40.143Z,3.08
2023-02-19T05:56:33.126Z,2.80
2023-02-19T05:59:03.875Z,3.00
2023-02-19T06:01:31.144Z,3.17
2023-02-19T06:03:58.140Z,3.22
2023-02-19T06:06:25.963Z,3.00
2023-02-19T06:08:53.091Z,3.17
2023-02-19T06:11:20.254Z,3.28
2023-02-19T06:13:46.727Z,3.38
2023-02-19T06:16:13.732Z,3.78
2023-02-19T06:18:41.212Z,3.15
2023-02-19T06:21:10.145Z,3.42
2023-02-19T06:23:38.205Z,3.05
2023-02-19T06:26:07.247Z,3.53
2023-02-19T06:28:33.692Z,3.80
2023-02-19T06:31:00.198Z,3.22
2023-02-19T06:33:28.202Z,3.80
2023-02-19T06:35:54.891Z,3.38
2023-02-19T06:38:21.606Z,2.90
2023-02-19T06:40:48.039Z,3.47
2023-02-19T06:43:14.466Z,3.58
2023-02-19T06:45:41.359Z,3.05
2023-02-19T06:48:07.794Z,2.88
2023-02-19T06:50:34.231Z,2.92
2023-02-19T06:53:00.666Z,2.80
2023-02-19T06:55:27.312Z,2.95
2023-02-19T06:57:53.806Z,2.92
2023-02-19T07:00:20.333Z,3.20
2023-02-19T07:02:46.756Z,3.20
2023-02-19T07:05:13.160Z,2.97
2023-02-19T07:07:39.632Z,3.38
2023-02-19T07:10:06.362Z,3.30
2023-02-19T07:12:32.778Z,3.60
2023-02-19T07:14:59.224Z,3.35
2023-02-19T07:17:25.703Z,3.45
2023-02-19T07:19:52.605Z,3.78
2023-02-19T07:22:19.044Z,3.83
2023-02-19T07:24:47.796Z,3.65
2023-02-19T07:27:14.451Z,3.85
2023-02-19T07:29:40.891Z,3.47
2023-02-19T07:32:07.704Z,4.20
2023-02-19T07:34:34.143Z,4.10
2023-02-19T07:37:00.788Z,4.60
2023-02-19T07:39:27.312Z,4.65
2023-02-19T07:41:53.716Z,4.43
2023-02-19T07:44:26.522Z,4.28
2023-02-19T07:46:52.926Z,4.70
2023-02-19T07:49:19.362Z,4.45
2023-02-19T07:51:45.802Z,4.20
2023-02-19T07:54:12.452Z,4.40
2023-02-19T07:56:39.183Z,4.35
2023-02-19T07:59:05.628Z,4.28
2023-02-19T08:01:50.977Z,4.53
2023-02-19T08:04:17.400Z,4.40
2023-02-19T08:06:43.887Z,4.28
2023-02-19T08:09:11.290Z,4.00
2023-02-19T08:11:56.803Z,3.95
2023-02-19T08:14:27.322Z,4.03
2023-02-19T08:16:54.270Z,4.80
2023-02-19T08:19:21.114Z,4.05
2023-02-19T08:21:47.573Z,4.10
2023-02-19T08:24:14.010Z,4.25
2023-02-19T08:26:40.437Z,4.10
2023-02-19T08:29:07.122Z,3.75
2023-02-19T08:31:34.621Z,4.03
2023-02-19T08:34:01.316Z,4.05
2023-02-19T08:36:27.917Z,4.07
2023-02-19T08:38:54.496Z,3.88
2023-02-19T08:41:20.940Z,3.50
2023-02-19T08:43:47.410Z,4.28
2023-02-19T08:46:13.963Z,3.50
2023-02-19T08:48:40.600Z,3.40
2023-02-19T08:51:10.391Z,3.58
2023-02-19T08:53:39.078Z,3.85
2023-02-19T08:56:11.779Z,4.18
2023-02-19T08:58:38.529Z,3.90
2023-02-19T09:01:12.711Z,4.18
2023-02-19T09:03:39.663Z,3.47
2023-02-19T09:06:06.414Z,4.20
2023-02-19T09:08:32.968Z,3.70
2023-02-19T09:11:04.539Z,3.65
2023-02-19T09:13:31.058Z,3.70
2023-02-19T09:15:57.809Z,3.58
2023-02-19T09:18:25.751Z,3.75
2023-02-19T09:20:52.670Z,3.75
2023-02-19T09:23:19.132Z,3.83
2023-02-19T09:25:45.641Z,3.90
2023-02-19T09:28:12.118Z,3.80
2023-02-19T09:30:38.620Z,3.78
2023-02-19T09:33:06.049Z,3.33
2023-02-19T09:35:32.594Z,3.55
2023-02-19T09:38:01.863Z,3.65
2023-02-19T09:40:30.292Z,3.42
2023-02-19T09:42:57.028Z,3.35
2023-02-19T09:45:26.112Z,4.90
2023-02-19T09:47:57.916Z,3.08
2023-02-19T09:50:41.099Z,3.40
2023-02-19T09:53:25.252Z,3.40
2023-02-19T09:55:52.970Z,2.42
2023-02-19T09:58:45.662Z,2.85
2023-02-19T10:01:13.449Z,3.60
2023-02-19T10:03:43.638Z,3.50
2023-02-19T10:06:20.416Z,2.35
2023-02-19T10:08:49.037Z,2.97
2023-02-19T10:11:16.107Z,2.67
2023-02-19T10:14:00.929Z,2.72
2023-02-19T10:16:28.985Z,1.95
2023-02-19T10:18:56.592Z,2.63
2023-02-19T10:21:27.964Z,2.35
2023-02-19T10:24:00.361Z,2.58
2023-02-19T10:26:27.494Z,2.13
2023-02-19T10:28:55.422Z,2.38
2023-02-19T10:31:25.274Z,2.47
2023-02-19T10:33:57.926Z,2.30
2023-02-19T10:36:30.621Z,1.95
2023-02-19T10:39:00.769Z,2.17
2023-02-19T10:41:28.725Z,1.85
2023-02-19T10:43:58.227Z,2.58
2023-02-19T10:46:28.289Z,2.22
2023-02-19T10:49:06.556Z,2.20
2023-02-19T10:51:36.993Z,1.75
2023-02-19T10:54:05.375Z,2.08
2023-02-19T10:56:33.624Z,2.30
2023-02-19T10:59:21.116Z,2.15
2023-02-19T11:02:18.267Z,1.60
2023-02-19T11:05:05.608Z,1.90
2023-02-19T11:07:32.888Z,1.95
2023-02-19T11:10:00.143Z,2.17
2023-02-19T11:12:31.858Z,2.03
2023-02-19T11:15:11.597Z,1.70
2023-02-19T11:17:38.802Z,2.00
2023-02-19T11:20:14.887Z,2.03
2023-02-19T11:22:49.124Z,1.50
2023-02-19T11:25:16.323Z,1.63
2023-02-19T11:28:04.081Z,1.50
2023-02-19T11:30:32.325Z,1.70
2023-02-19T11:33:20.992Z,1.50
2023-02-19T11:36:08.922Z,1.67
2023-02-19T11:38:35.506Z,1.77
2023-02-19T11:41:36.656Z,1.52
2023-02-19T11:44:30.051Z,1.88
2023-02-19T11:47:23.073Z,1.60
2023-02-19T11:50:28.524Z,1.60
2023-02-19T11:53:29.486Z,1.73
2023-02-19T11:56:14.141Z,1.80
2023-02-19T11:59:05.289Z,2.60
2023-02-19T12:01:44.180Z,2.25
2023-02-19T12:04:37.743Z,1.60
2023-02-19T12:07:15.923Z,1.70
2023-02-19T12:10:25.179Z,1.50
2023-02-19T12:13:10.126Z,1.48
2023-02-19T12:16:09.772Z,1.80
2023-02-19T12:19:08.233Z,1.70
2023-02-19T12:22:14.960Z,1.67
2023-02-19T12:25:29.423Z,1.40
2023-02-19T12:28:10.102Z,1.38
2023-02-19T12:31:13.928Z,1.70
2023-02-19T12:33:46.508Z,1.48
2023-02-19T12:36:26.529Z,1.70
2023-02-19T12:39:11.200Z,1.92
2023-02-19T12:41:50.016Z,2.08
2023-02-19T12:44:34.665Z,1.67
2023-02-19T12:47:06.456Z,1.60
2023-02-19T12:49:40.896Z,2.05
2023-02-19T12:52:16.581Z,1.80
2023-02-19T12:54:47.770Z,1.92
2023-02-19T12:57:20.789Z,1.73
2023-02-19T13:00:07.747Z,1.80
2023-02-19T13:02:44.222Z,1.67
2023-02-19T13:05:42.106Z,1.77
2023-02-19T13:09:07.352Z,1.60
2023-02-19T13:11:58.299Z,1.55
2023-02-19T13:14:30.684Z,1.70
2023-02-19T13:17:21.245Z,2.05
2023-02-19T13:19:52.440Z,1.45
2023-02-19T13:22:56.033Z,1.50
2023-02-19T13:25:28.083Z,1.60
2023-02-19T13:28:08.378Z,1.55
2023-02-19T13:31:03.530Z,1.63
2023-02-19T13:33:42.218Z,1.75
2023-02-19T13:36:12.557Z,1.13
2023-02-19T13:38:44.126Z,1.30
2023-02-19T13:41:19.846Z,1.50
2023-02-19T13:43:54.084Z,1.50
2023-02-19T13:46:20.725Z,1.63
2023-02-19T13:48:47.196Z,1.52
2023-02-19T13:51:21.560Z,1.65
2023-02-19T13:53:48.157Z,1.60
2023-02-19T13:56:30.065Z,1.70
2023-02-19T13:58:57.927Z,1.25
2023-02-19T14:01:58.780Z,1.40
2023-02-19T14:04:40.887Z,1.40
2023-02-19T14:07:07.358Z,1.20
2023-02-19T14:09:45.891Z,1.45
2023-02-19T14:12:16.271Z,1.58
2023-02-19T14:14:46.742Z,1.55
2023-02-19T14:17:38.267Z,1.63
2023-02-19T14:20:17.046Z,1.40
2023-02-19T14:22:47.720Z,1.27
2023-02-19T14:25:38.225Z,1.30
2023-02-19T14:28:10.635Z,1.20
2023-02-19T14:31:00.883Z,1.25
2023-02-19T14:33:34.071Z,1.23
2023-02-19T14:36:13.963Z,1.38
2023-02-19T14:39:11.919Z,1.25
2023-02-19T14:41:41.501Z,1.40
2023-02-19T14:44:34.055Z,1.65
2023-02-19T14:47:05.875Z,1.10
2023-02-19T14:49:47.944Z,1.70
2023-02-19T14:52:36.669Z,1.77
2023-02-19T14:55:13.507Z,1.60
2023-02-19T14:57:43.040Z,1.90
2023-02-19T15:00:22.065Z,1.88
2023-02-19T15:02:55.604Z,1.60
2023-02-19T15:05:26.323Z,1.30
2023-02-19T15:07:55.409Z,1.50
2023-02-19T15:10:22.518Z,1.42
2023-02-19T15:12:56.047Z,1.52
2023-02-19T15:15:36.384Z,1.38
2023-02-19T15:18:04.925Z,1.45
2023-02-19T15:20:36.909Z,1.27
2023-02-19T15:23:06.565Z,1.70
2023-02-19T15:25:35.773Z,1.38
2023-02-19T15:28:24.340Z,1.65
2023-02-19T15:30:56.828Z,1.60
2023-02-19T15:33:23.423Z,1.67
2023-02-19T15:35:56.124Z,1.80
2023-02-19T15:38:22.833Z,2.03
2023-02-19T15:40:49.818Z,1.70
2023-02-19T15:43:27.612Z,1.83
2023-02-19T15:45:59.185Z,2.47
2023-02-19T15:48:39.718Z,1.92
2023-02-19T15:51:14.294Z,2.30
2023-02-19T15:53:47.853Z,2.20
2023-02-19T15:56:28.058Z,2.47
2023-02-19T15:59:01.024Z,2.70
2023-02-19T16:01:30.266Z,2.33
2023-02-19T16:03:58.425Z,3.45
2023-02-19T16:06:26.400Z,2.40
2023-02-19T16:08:52.800Z,2.50
2023-02-19T16:11:22.302Z,2.42
2023-02-19T16:13:50.593Z,2.30
2023-02-19T16:16:29.798Z,2.30
2023-02-19T16:18:57.027Z,2.13
2023-02-19T16:21:26.894Z,2.25
2023-02-19T16:24:11.754Z,2.45
2023-02-19T16:26:43.161Z,2.33
2023-02-19T16:29:25.396Z,2.35
2023-02-19T16:31:55.520Z,2.30
2023-02-19T16:34:41.525Z,2.40
2023-02-19T16:37:30.014Z,2.33
2023-02-19T16:40:34.748Z,2.80
2023-02-19T16:43:03.937Z,2.35
2023-02-19T16:45:30.760Z,2.40
2023-02-19T16:47:57.611Z,2.20
2023-02-19T16:50:26.771Z,2.30
2023-02-19T16:52:59.470Z,2.55
2023-02-19T16:55:27.251Z,2.58
2023-02-19T16:57:54.349Z,2.40
2023-02-19T17:00:31.858Z,2.75
2023-02-19T17:03:02.430Z,3.90
2023-02-19T17:05:32.254Z,3.83
2023-02-19T17:07:58.729Z,4.72
2023-02-19T17:10:27.555Z,4.10
2023-02-19T17:12:55.156Z,4.15
2023-02-19T17:15:22.634Z,4.30
2023-02-19T17:17:49.223Z,4.72
2023-02-19T17:20:15.603Z,5.47
2023-02-19T17:22:42.401Z,4.20
2023-02-19T17:25:09.184Z,4.20
2023-02-19T17:27:35.926Z,4.55
2023-02-19T17:30:02.859Z,5.07
2023-02-19T17:32:31.992Z,4.50
2023-02-19T17:34:58.736Z,4.30
2023-02-19T17:37:25.139Z,4.30
2023-02-19T17:39:51.901Z,4.10
2023-02-19T17:42:18.790Z,4.25
2023-02-19T17:44:46.660Z,3.88
2023-02-19T17:47:13.281Z,3.83
2023-02-19T17:49:39.743Z,3.38
2023-02-19T17:52:06.621Z,3.47
2023-02-19T17:54:34.217Z,3.78
2023-02-19T17:57:00.687Z,3.83
2023-02-19T17:59:27.152Z,3.90
2023-02-19T18:01:53.651Z,3.78
2023-02-19T18:04:20.624Z,4.43
2023-02-19T18:06:48.080Z,3.92
2023-02-19T18:09:17.966Z,3.80
2023-02-19T18:11:46.278Z,3.83
2023-02-19T18:14:12.729Z,3.60
2023-02-19T18:16:50.035Z,3.70
2023-02-19T18:19:17.117Z,4.00
2023-02-19T18:21:43.563Z,3.97
2023-02-19T18:24:09.980Z,3.20
2023-02-19T18:26:36.470Z,3.65
2023-02-19T18:29:02.977Z,3.72
2023-02-19T18:31:32.739Z,3.70
2023-02-19T18:33:59.457Z,3.40
2023-02-19T18:36:25.956Z,3.45
2023-02-19T18:38:52.374Z,4.65
2023-02-19T18:41:21.067Z,3.92
2023-02-19T18:43:48.945Z,6.57
2023-02-19T18:46:15.950Z,6.53
2023-02-19T18:48:42.827Z,5.18
2023-02-19T18:51:10.923Z,6.10
2023-02-19T18:53:37.671Z,5.80
2023-02-19T18:56:05.328Z,5.55
2023-02-19T18:58:31.899Z,5.85
2023-02-19T19:00:59.427Z,6.22
2023-02-19T19:03:26.001Z,4.82
2023-02-19T19:05:52.657Z,5.07
2023-02-19T19:08:19.057Z,4.50
2023-02-19T19:10:45.506Z,5.25
2023-02-19T19:13:11.989Z,4.18
2023-02-19T19:15:41.261Z,4.50
2023-02-19T19:18:08.965Z,4.72
2023-02-19T19:20:35.500Z,4.88
2023-02-19T19:23:02.367Z,5.63
2023-02-19T19:25:28.781Z,5.18
2023-02-19T19:27:55.836Z,5.07
2023-02-19T19:30:22.476Z,5.75
2023-02-19T19:32:50.269Z,5.35
2023-02-19T19:35:18.005Z,4.80
2023-02-19T19:37:45.015Z,5.05
2023-02-19T19:40:11.959Z,4.60
2023-02-19T19:42:39.126Z,4.68
2023-02-19T19:45:06.113Z,4.55
2023-02-19T19:47:32.599Z,4.72
2023-02-19T19:49:59.062Z,4.30
2023-02-19T19:52:25.705Z,4.18
2023-02-19T19:54:54.061Z,4.18
2023-02-19T19:57:20.841Z,4.25
2023-02-19T19:59:51.246Z,3.58
2023-02-19T20:02:18.239Z,4.28
2023-02-19T20:04:44.792Z,4.13
2023-02-19T20:07:11.255Z,2.95
2023-02-19T20:09:37.709Z,3.80
2023-02-19T20:12:04.937Z,3.58
2023-02-19T20:14:31.459Z,3.13
2023-02-19T20:16:58.307Z,3.30
2023-02-19T20:19:24.905Z,3.10
2023-02-19T20:21:53.340Z,3.33
2023-02-19T20:24:28.416Z,2.90
2023-02-19T20:26:58.602Z,2.85
2023-02-19T20:29:30.424Z,2.88
2023-02-19T20:32:02.388Z,2.92
2023-02-19T20:34:29.799Z,2.65
2023-02-19T20:36:56.240Z,2.70
2023-02-19T20:39:22.839Z,2.88
2023-02-19T20:41:51.929Z,2.63
2023-02-19T20:44:19.792Z,2.50
2023-02-19T20:46:49.284Z,2.88
2023-02-19T20:49:18.149Z,2.90
2023-02-19T20:51:54.722Z,2.30
2023-02-19T20:54:23.718Z,3.25
2023-02-19T20:56:52.969Z,2.80
2023-02-19T20:59:21.761Z,2.92
2023-02-19T21:01:49.116Z,2.60
2023-02-19T21:04:17.579Z,2.97
2023-02-19T21:06:44.060Z,2.70
2023-02-19T21:09:10.656Z,2.63
2023-02-19T21:11:37.159Z,2.90
2023-02-19T21:14:03.628Z,2.45
2023-02-19T21:16:31.906Z,2.47
2023-02-19T21:18:58.968Z,2.38
2023-02-19T21:21:26.247Z,2.67
2023-02-19T21:23:57.479Z,3.08
2023-02-19T21:26:25.234Z,3.00
2023-02-19T21:28:52.465Z,2.70
2023-02-19T21:31:23.886Z,2.83
2023-02-19T21:33:51.752Z,2.80
2023-02-19T21:36:18.638Z,3.03
2023-02-19T21:38:45.074Z,3.20
2023-02-19T21:41:11.505Z,3.03
2023-02-19T21:43:37.914Z,3.38
2023-02-19T21:46:04.563Z,3.10
2023-02-19T21:48:30.988Z,3.28
2023-02-19T21:50:57.436Z,3.20
2023-02-19T21:53:23.891Z,3.20
2023-02-19T21:55:58.217Z,3.63
2023-02-19T21:58:25.905Z,3.35
2023-02-19T22:00:53.878Z,3.10
2023-02-19T22:03:20.470Z,3.00
2023-02-19T22:05:46.891Z,3.38
2023-02-19T22:08:15.517Z,3.38
2023-02-19T22:10:42.473Z,3.38
2023-02-19T22:13:09.722Z,3.50
2023-02-19T22:15:36.870Z,3.28
2023-02-19T22:18:03.635Z,3.75
2023-02-19T22:20:30.079Z,3.67
2023-02-19T22:22:56.497Z,3.03
2023-02-19T22:25:22.945Z,3.65
2023-02-19T22:27:49.423Z,3.13
2023-02-19T22:30:16.154Z,2.92
2023-02-19T22:32:42.775Z,3.33
2023-02-19T22:35:09.234Z,3.28
2023-02-19T22:37:35.658Z,3.67
2023-02-19T22:40:02.090Z,3.50
2023-02-19T22:42:29.336Z,3.35
2023-02-19T22:44:55.924Z,3.30
2023-02-19T22:47:22.415Z,3.10
2023-02-19T22:49:48.971Z,3.65
2023-02-19T22:52:15.515Z,3.40
2023-02-19T22:54:41.987Z,3.00
2023-02-19T22:57:08.404Z,3.35
2023-02-19T22:59:34.932Z,3.53
2023-02-19T23:02:01.732Z,3.30
2023-02-19T23:04:28.204Z,3.30
2023-02-19T23:06:54.943Z,3.50
2023-02-19T23:09:24.678Z,3.65
2023-02-19T23:11:52.100Z,3.53
2023-02-19T23:14:21.448Z,3.13
2023-02-19T23:16:47.958Z,3.78
2023-02-19T23:19:15.633Z,3.00
2023-02-19T23:21:44.073Z,3.50
2023-02-19T23:24:11.655Z,3.45
2023-02-19T23:26:43.331Z,3.55
2023-02-19T23:29:09.763Z,3.42
2023-02-19T23:31:36.253Z,3.38
2023-02-19T23:34:02.735Z,3.50
2023-02-19T23:36:29.456Z,3.20
2023-02-19T23:38:55.973Z,3.30
2023-02-19T23:41:22.453Z,3.28
2023-02-19T23:43:49.269Z,3.10
2023-02-19T23:46:17.772Z,3.47
2023-02-19T23:48:45.559Z,3.35
2023-02-19T23:51:12.078Z,3.30
2023-02-19T23:53:38.565Z,3.15
2023-02-19T23:56:05.662Z,3.45
2023-02-19T23:58:32.141Z,3.20
